Oran, Algeria
Current Conditions -  °F | °C
As of 7:30 PM on Thursday 23 Oct 2014 (Local Time) from DAOO Reporting Station
Clear Clear  
Wind Chill: 68°   Ceiling: Unl
Heat Index: 68°   Visibility: 6mi
Dew Point: 63°   Wind: 2mph
Humidity: 83%   Direction: 60°ENE
Pressure: 30.09"   Gusts: NA
Location:  35.61°N, 0.57°W
Report Text: DAOO 231830Z 06002KT CAVOK 20/17 Q1019
Loading
Personal Weather Stations






























Interactive Weather Map
Tropical Storm Tracking
New forecast layout! Learn more

10-Day Weather Forecast

Advertisements
Track Severe Weather on mobile